Time;durP1;ratioP1;P1;durP2;ratioP2;P2;SDS_P1;SDS_P2;PMS_P1;PMS_P2;Temp;Humidity;BMP_temperature;BMP_pressure;BME280_temperature;BME280_humidity;BME280_pressure;Samples;Min_cycle;Max_cycle;Signal;HPM_P1;HPM_P2
2021/05/08 00:01:17;;;;;;;6.15;3.90;;;;;;;13.64;72.63;98381.75;1767138;80;21232;-39
2021/05/08 00:03:46;;;;;;;7.40;4.47;;;;;;;13.67;72.40;98385.80;1822049;77;21605;-39
2021/05/08 00:06:14;;;;;;;5.72;3.83;;;;;;;13.68;72.22;98396.10;1759009;80;22192;-39
2021/05/08 00:08:42;;;;;;;5.72;4.10;;;;;;;13.71;72.00;98400.73;1765336;80;21125;-39
2021/05/08 00:11:10;;;;;;;5.92;4.17;;;;;;;13.72;71.85;98399.56;1816009;77;21150;-39
2021/05/08 00:13:38;;;;;;;5.28;3.98;;;;;;;13.67;71.83;98392.60;1801876;77;21181;-39
2021/05/08 00:16:06;;;;;;;5.42;4.17;;;;;;;13.60;71.99;98389.19;1806771;78;21362;-39
2021/05/08 00:18:34;;;;;;;5.03;4.00;;;;;;;13.48;72.31;98387.13;1796331;78;21394;-39
2021/05/08 00:21:03;;;;;;;5.72;4.28;;;;;;;13.40;72.62;98393.04;1802200;77;21683;-39
2021/05/08 00:23:32;;;;;;;4.33;3.77;;;;;;;13.38;72.74;98388.58;1811514;77;20991;-39
2021/05/08 00:26:02;;;;;;;4.80;4.17;;;;;;;13.42;72.90;98388.73;1807397;78;21536;-39
2021/05/08 00:28:30;;;;;;;5.72;4.35;;;;;;;13.46;72.83;98384.61;1799253;77;21181;-39
2021/05/08 00:30:58;;;;;;;5.62;3.92;;;;;;;13.48;72.81;98384.41;1797279;78;21349;-39
2021/05/08 00:33:27;;;;;;;4.47;3.67;;;;;;;13.46;72.67;98384.02;1782177;79;21028;-40
2021/05/08 00:35:55;;;;;;;5.37;3.80;;;;;;;13.39;72.71;98386.82;1781776;79;21425;-39
2021/05/08 00:38:23;;;;;;;4.58;3.72;;;;;;;13.38;72.80;98392.08;1790052;79;21971;-39
2021/05/08 00:40:50;;;;;;;4.40;3.65;;;;;;;13.44;72.80;98382.30;1798351;79;21126;-39
2021/05/08 00:43:20;;;;;;;5.33;4.00;;;;;;;13.55;72.61;98369.19;1791500;78;21383;-39
2021/05/08 00:45:49;;;;;;;4.35;3.70;;;;;;;13.63;72.63;98359.77;1783246;79;21169;-39
2021/05/08 00:48:17;;;;;;;5.15;4.03;;;;;;;13.67;72.57;98355.83;1782259;79;21165;-39
2021/05/08 00:50:45;;;;;;;6.15;3.92;;;;;;;13.70;72.29;98353.66;1783227;79;21150;-39
2021/05/08 00:53:13;;;;;;;5.53;3.50;;;;;;;13.73;71.94;98355.59;1781330;80;21118;-39
2021/05/08 00:55:44;;;;;;;4.75;3.33;;;;;;;13.80;71.65;98350.64;1795708;79;21367;-39
2021/05/08 00:58:12;;;;;;;4.47;3.98;;;;;;;13.79;71.53;98351.84;1754508;80;21194;-39
2021/05/08 01:00:41;;;;;;;6.92;4.30;;;;;;;13.70;71.64;98368.63;1784444;79;21126;-39
2021/05/08 01:03:09;;;;;;;4.30;3.90;;;;;;;13.60;71.68;98370.12;1797249;79;21134;-39
2021/05/08 01:05:39;;;;;;;4.57;3.70;;;;;;;13.48;71.84;98377.59;1781695;79;21445;-39
2021/05/08 01:08:09;;;;;;;3.83;3.42;;;;;;;13.40;71.91;98381.56;1788875;79;21207;-39
2021/05/08 01:10:39;;;;;;;5.22;4.00;;;;;;;13.37;72.05;98387.02;1809908;79;21102;-39
2021/05/08 01:13:07;;;;;;;4.42;3.37;;;;;;;13.30;72.20;98390.59;1787934;77;22073;-39
2021/05/08 01:15:37;;;;;;;6.47;3.92;;;;;;;13.22;72.46;98394.52;1781995;79;21110;-39
2021/05/08 01:18:05;;;;;;;4.87;3.37;;;;;;;13.13;72.68;98391.48;1761268;79;21624;-39
2021/05/08 01:20:33;;;;;;;3.70;2.87;;;;;;;13.01;72.88;98385.13;1783757;79;22327;-39
2021/05/08 01:23:03;;;;;;;6.67;3.30;;;;;;;12.95;73.19;98380.69;1752199;80;21158;-39
2021/05/08 01:25:32;;;;;;;5.55;2.90;;;;;;;13.01;73.28;98384.55;1783659;79;21134;-39
2021/05/08 01:28:01;;;;;;;4.42;2.83;;;;;;;13.06;73.35;98381.98;1790334;79;21205;-39
2021/05/08 01:30:34;;;;;;;3.10;2.80;;;;;;;13.06;73.20;98384.13;1802221;79;21146;-39
2021/05/08 01:33:05;;;;;;;4.40;3.08;;;;;;;13.06;73.26;98383.34;1798402;78;21366;-39
2021/05/08 01:35:34;;;;;;;3.02;2.35;;;;;;;13.04;73.13;98385.68;1796966;79;21115;-39
2021/05/08 01:38:04;;;;;;;3.50;2.52;;;;;;;13.01;73.11;98389.21;1733272;81;21153;-39
2021/05/08 01:40:37;;;;;;;2.87;2.50;;;;;;;13.04;73.00;98387.82;1737859;81;21196;-39
2021/05/08 01:43:07;;;;;;;4.40;2.90;;;;;;;13.06;73.07;98388.79;1768102;81;21138;-40
2021/05/08 01:46:43;;;;;;;5.10;2.95;;;;;;;13.06;73.07;98380.63;1840813;77;22380;-39
2021/05/08 01:49:12;;;;;;;3.20;2.52;;;;;;;12.95;73.26;98373.11;1770181;80;21569;-39
2021/05/08 01:51:40;;;;;;;4.50;2.40;;;;;;;13.01;73.27;98385.13;1765233;79;21186;-39
2021/05/08 01:54:10;;;;;;;3.37;2.92;;;;;;;13.09;73.04;98386.62;1767846;79;21000;-39
2021/05/08 01:56:38;;;;;;;3.00;2.70;;;;;;;13.12;73.04;98387.20;1731697;80;21074;-39
2021/05/08 01:59:09;;;;;;;4.65;3.40;;;;;;;13.11;72.95;98384.31;1768966;78;21045;-39
2021/05/08 02:01:38;;;;;;;4.42;3.00;;;;;;;13.11;72.97;98378.06;1746826;79;21020;-39
2021/05/08 02:04:09;;;;;;;6.62;3.08;;;;;;;13.09;72.90;98373.02;1743513;80;21201;-39
2021/05/08 02:06:37;;;;;;;2.55;2.35;;;;;;;13.12;72.78;98385.84;1759853;80;21072;-39
2021/05/08 02:09:37;;;;;;;4.35;3.10;;;;;;;13.22;72.71;98380.13;1857924;75;22703;-39
2021/05/08 02:12:07;;;;;;;3.92;3.30;;;;;;;13.20;72.65;98379.19;1827747;76;21601;-39
2021/05/08 02:14:35;;;;;;;3.98;3.25;;;;;;;13.18;72.71;98377.45;1840941;76;21191;-39
2021/05/08 02:17:03;;;;;;;3.67;3.10;;;;;;;13.18;72.78;98376.08;1857916;77;20983;-39
2021/05/08 02:19:31;;;;;;;4.30;3.12;;;;;;;13.20;72.70;98380.55;1841879;76;21619;-39
2021/05/08 02:21:59;;;;;;;5.08;3.00;;;;;;;13.25;72.52;98390.23;1831252;77;21604;-39
2021/05/08 02:24:28;;;;;;;5.58;3.10;;;;;;;13.31;72.28;98392.11;1831718;77;21580;-39
2021/05/08 02:26:56;;;;;;;4.20;3.40;;;;;;;13.05;72.06;98341.75;1829692;77;21363;-39
2021/05/08 02:29:24;;;;;;;5.85;3.50;;;;;;;13.39;71.99;98390.13;1839022;77;21599;-39
2021/05/08 02:31:53;;;;;;;4.10;3.40;;;;;;;13.41;71.79;98389.12;1811139;78;21028;-39
2021/05/08 02:34:21;;;;;;;5.00;3.90;;;;;;;13.43;71.62;98387.56;1764552;80;21150;-39
2021/05/08 02:36:50;;;;;;;6.42;3.42;;;;;;;13.44;71.47;98393.78;1788553;79;21094;-39
2021/05/08 02:39:18;;;;;;;4.40;3.50;;;;;;;13.43;71.28;98383.47;1767096;80;22203;-39
2021/05/08 02:41:46;;;;;;;4.53;3.60;;;;;;;13.48;71.27;98381.69;1786872;79;21123;-39
2021/05/08 02:44:15;;;;;;;8.30;3.70;;;;;;;13.51;71.18;98377.37;1782341;79;21142;-39
2021/05/08 02:46:43;;;;;;;5.67;3.65;;;;;;;13.48;71.26;98372.16;1750858;79;21608;-39
2021/05/08 02:49:11;;;;;;;5.05;3.62;;;;;;;13.48;71.33;98370.02;1775877;79;21165;-39
2021/05/08 02:51:41;;;;;;;5.35;3.50;;;;;;;13.45;71.30;98387.95;1780771;79;21035;-39
2021/05/08 02:54:09;;;;;;;4.08;3.65;;;;;;;13.39;71.28;98383.32;1766226;79;21149;-39
2021/05/08 02:56:37;;;;;;;3.47;3.10;;;;;;;13.35;71.50;98381.99;1761969;79;21224;-39
2021/05/08 02:59:06;;;;;;;5.35;3.42;;;;;;;13.36;71.46;98380.05;1766771;80;21170;-39
2021/05/08 03:01:34;;;;;;;4.42;3.72;;;;;;;13.37;71.47;98390.52;1768573;80;21161;-39
2021/05/08 03:04:04;;;;;;;5.03;3.70;;;;;;;13.33;71.68;98386.28;1757134;80;21150;-39
2021/05/08 03:06:32;;;;;;;3.60;3.27;;;;;;;13.29;71.93;98386.31;1772397;79;21625;-40
2021/05/08 03:09:00;;;;;;;6.75;4.30;;;;;;;13.29;71.88;98380.87;1766351;79;21577;-39
2021/05/08 03:11:28;;;;;;;3.98;3.60;;;;;;;13.25;72.08;98380.71;1776905;79;20991;-39
2021/05/08 03:13:59;;;;;;;6.78;3.90;;;;;;;13.26;72.16;98378.19;1768110;79;21153;-39
2021/05/08 03:16:29;;;;;;;5.15;3.83;;;;;;;13.31;71.96;98381.22;1785175;79;22157;-39
2021/05/08 03:18:58;;;;;;;5.97;4.28;;;;;;;13.32;72.00;98375.97;1784707;79;21122;-39
2021/05/08 03:21:27;;;;;;;5.78;4.45;;;;;;;13.32;72.11;98371.89;1793360;77;21102;-39
2021/05/08 03:23:55;;;;;;;5.03;4.53;;;;;;;13.34;72.08;98370.91;1747862;80;21178;-39
2021/05/08 03:26:23;;;;;;;4.95;4.37;;;;;;;12.98;72.06;98320.61;1777945;80;21171;-40
2021/05/08 03:28:53;;;;;;;;;;;;;;;13.29;72.20;98369.98;1782687;80;21047;-39
2021/05/08 03:31:22;;;;;;;6.60;5.10;;;;;;;13.27;72.25;98372.31;1784478;79;20176;-39
2021/05/08 03:33:50;;;;;;;7.97;5.15;;;;;;;13.14;72.75;98376.70;1787505;79;21147;-39
2021/05/08 03:36:18;;;;;;;6.83;5.55;;;;;;;13.07;73.07;98377.48;1768463;78;21165;-39
2021/05/08 03:38:46;;;;;;;6.80;5.03;;;;;;;12.99;73.37;98379.30;1804022;78;21086;-39
2021/05/08 03:41:15;;;;;;;8.48;5.85;;;;;;;12.96;73.68;98380.89;1786605;78;21330;-39
2021/05/08 03:43:43;;;;;;;8.25;5.25;;;;;;;12.99;73.64;98381.44;1765313;79;21035;-39
2021/05/08 03:46:12;;;;;;;7.37;5.95;;;;;;;12.99;73.84;98372.50;1805003;77;21028;-39
2021/05/08 03:48:40;;;;;;;7.00;5.95;;;;;;;12.96;74.01;98370.59;1792129;78;21925;-39
2021/05/08 03:51:08;;;;;;;7.10;6.12;;;;;;;12.93;74.02;98367.28;1781645;79;21400;-39
2021/05/08 03:53:36;;;;;;;7.58;6.00;;;;;;;12.87;74.17;98372.98;1795729;77;21356;-39
2021/05/08 03:56:05;;;;;;;6.58;5.80;;;;;;;12.87;74.28;98393.37;1794581;78;21232;-39
2021/05/08 03:58:33;;;;;;;7.37;6.67;;;;;;;12.93;74.46;98399.93;1802539;78;21501;-39
2021/05/08 04:01:01;;;;;;;8.15;6.83;;;;;;;12.91;74.20;98389.47;1766611;80;21110;-39
2021/05/08 04:03:29;;;;;;;7.08;6.03;;;;;;;12.92;74.25;98399.77;1773153;79;21546;-39
2021/05/08 04:05:56;;;;;;;7.85;6.12;;;;;;;12.92;74.26;98412.00;1806741;78;21440;-39
2021/05/08 04:08:24;;;;;;;8.70;6.78;;;;;;;12.97;74.12;98415.67;1787111;79;21173;-39
2021/05/08 04:10:52;;;;;;;9.15;6.40;;;;;;;12.96;73.61;98419.55;1785371;78;21118;-39
2021/05/08 04:13:21;;;;;;;9.23;6.83;;;;;;;12.91;73.40;98417.25;1807158;78;21189;-40
2021/05/08 04:15:49;;;;;;;7.30;5.78;;;;;;;12.86;73.59;98420.39;1787777;78;21618;-40
2021/05/08 04:18:17;;;;;;;5.90;5.15;;;;;;;12.86;73.94;98423.11;1770388;80;21370;-39
2021/05/08 04:20:46;;;;;;;6.42;5.50;;;;;;;12.95;72.95;98431.02;1764908;80;21207;-39
2021/05/08 04:23:13;;;;;;;8.43;4.97;;;;;;;12.93;72.14;98434.71;1790274;78;21600;-39
2021/05/08 04:25:42;;;;;;;5.90;4.97;;;;;;;12.82;72.09;98437.31;1785365;79;21122;-40
2021/05/08 04:28:11;;;;;;;5.97;4.62;;;;;;;12.75;72.40;98444.14;1791556;77;21125;-39
2021/05/08 04:30:39;;;;;;;6.50;4.60;;;;;;;12.70;72.20;98443.97;1774041;79;22132;-39
2021/05/08 04:33:09;;;;;;;5.53;4.28;;;;;;;12.71;72.31;98447.46;1782942;78;21913;-40
2021/05/08 04:35:37;;;;;;;5.65;4.30;;;;;;;12.66;71.74;98453.31;1802005;77;21554;-40
2021/05/08 04:38:06;;;;;;;6.45;4.67;;;;;;;12.55;72.15;98447.33;1798735;78;21126;-39
2021/05/08 04:40:34;;;;;;;5.17;4.03;;;;;;;12.49;72.52;98466.56;1791857;78;21167;-39
2021/05/08 04:43:02;;;;;;;5.92;4.58;;;;;;;12.47;72.43;98459.98;1755958;80;21387;-39
2021/05/08 04:45:32;;;;;;;5.55;4.10;;;;;;;12.48;72.26;98463.68;1786297;78;21144;-39
2021/05/08 04:48:00;;;;;;;4.92;3.95;;;;;;;12.44;72.35;98460.17;1765768;78;21463;-39
2021/05/08 04:50:28;;;;;;;5.55;4.35;;;;;;;12.37;72.30;98465.64;1800998;78;21111;-42
2021/05/08 04:52:56;;;;;;;8.05;3.17;;;;;;;12.32;72.61;98467.98;1790561;78;21093;-39
2021/05/08 04:55:24;;;;;;;4.80;3.40;;;;;;;12.31;72.25;98471.86;1798779;78;21203;-39
2021/05/08 04:57:52;;;;;;;5.50;3.20;;;;;;;12.32;72.08;98476.91;1788105;79;21130;-39
2021/05/08 05:00:21;;;;;;;4.37;3.12;;;;;;;12.27;72.06;98474.59;1792797;78;21028;-39
2021/05/08 05:02:49;;;;;;;5.28;3.17;;;;;;;12.22;72.30;98481.79;1803208;78;21581;-39
2021/05/08 05:05:19;;;;;;;6.03;2.70;;;;;;;12.16;72.07;98496.35;1792168;78;21138;-40
2021/05/08 05:07:47;;;;;;;4.37;3.00;;;;;;;12.09;72.13;98496.38;1785005;80;21657;-40
2021/05/08 05:10:15;;;;;;;4.08;2.98;;;;;;;12.09;72.25;98503.17;1812689;78;21656;-39
2021/05/08 05:12:44;;;;;;;3.90;3.12;;;;;;;12.07;72.39;98504.12;1770944;78;21181;-39
2021/05/08 05:15:16;;;;;;;6.53;3.27;;;;;;;12.02;72.53;98501.80;1773258;80;21790;-39
2021/05/08 05:17:44;;;;;;;5.47;3.25;;;;;;;12.00;72.84;98506.09;1779496;79;21161;-39
2021/05/08 05:20:13;;;;;;;7.10;3.13;;;;;;;12.01;72.97;98495.39;1775930;79;21481;-39
2021/05/08 05:22:43;;;;;;;4.85;2.90;;;;;;;12.08;72.96;98496.75;1759002;79;21411;-39
2021/05/08 05:25:12;;;;;;;4.53;3.00;;;;;;;12.15;72.86;98504.91;1788989;80;21174;-40
2021/05/08 05:27:39;;;;;;;3.27;2.87;;;;;;;12.14;72.66;98505.48;1789761;79;21177;-39
2021/05/08 05:30:10;;;;;;;4.33;3.05;;;;;;;12.09;72.50;98503.75;1815110;78;21134;-39
2021/05/08 05:32:38;;;;;;;3.62;3.00;;;;;;;12.08;72.54;98502.19;1808982;78;22124;-39
2021/05/08 05:35:08;;;;;;;3.62;2.60;;;;;;;12.12;72.11;98502.38;1812003;78;21557;-39
2021/05/08 05:37:36;;;;;;;3.67;2.90;;;;;;;12.09;72.12;98500.45;1814063;78;21063;-39
2021/05/08 05:40:06;;;;;;;3.27;2.98;;;;;;;12.03;72.30;98499.86;1816082;78;21189;-39
2021/05/08 05:42:34;;;;;;;4.97;2.85;;;;;;;11.95;72.53;98499.69;1772624;79;21153;-40
2021/05/08 05:45:03;;;;;;;4.00;2.83;;;;;;;11.69;72.67;98470.94;1800359;78;22298;-39
2021/05/08 05:47:32;;;;;;;4.97;2.72;;;;;;;11.86;72.70;98495.23;1807755;79;21142;-39
2021/05/08 05:50:03;;;;;;;;;;;;;;;11.86;72.96;98501.41;1818857;78;21209;-39
2021/05/08 05:52:30;;;;;;;5.03;3.13;;;;;;;11.81;73.18;98498.33;1820756;78;20152;-39
2021/05/08 05:54:58;;;;;;;3.30;2.70;;;;;;;11.65;73.45;98504.89;1816205;78;21173;-39
2021/05/08 05:57:26;;;;;;;3.62;2.90;;;;;;;11.65;73.66;98502.17;1772788;78;21371;-39
2021/05/08 05:59:55;;;;;;;3.95;2.90;;;;;;;11.71;73.42;98511.46;1792068;78;21177;-40
2021/05/08 06:02:23;;;;;;;3.87;3.10;;;;;;;11.72;73.25;98504.91;1804817;78;21071;-39
2021/05/08 06:04:51;;;;;;;5.45;3.20;;;;;;;11.72;73.35;98513.05;1806557;78;21595;-39
2021/05/08 06:07:19;;;;;;;4.10;3.15;;;;;;;11.70;73.26;98515.94;1772935;78;21144;-39
2021/05/08 06:09:48;;;;;;;4.58;3.35;;;;;;;11.69;73.31;98519.23;1770994;79;21717;-40
2021/05/08 06:12:18;;;;;;;5.67;3.22;;;;;;;11.72;73.36;98521.20;1796681;79;21153;-39
2021/05/08 06:14:46;;;;;;;5.67;3.17;;;;;;;11.73;73.60;98524.69;1788856;80;21165;-39
2021/05/08 06:17:15;;;;;;;3.85;2.80;;;;;;;11.71;73.85;98533.19;1820657;78;21138;-40
2021/05/08 06:19:43;;;;;;;4.70;2.72;;;;;;;11.68;73.93;98535.33;1751800;78;21620;-39
2021/05/08 06:22:11;;;;;;;5.78;2.80;;;;;;;11.72;74.03;98548.34;1804917;78;21192;-39
2021/05/08 06:24:39;;;;;;;2.85;2.40;;;;;;;11.76;73.87;98551.09;1767594;80;21394;-39
2021/05/08 06:27:07;;;;;;;2.20;1.95;;;;;;;11.72;73.61;98553.78;1764542;79;21425;-39
2021/05/08 06:29:38;;;;;;;3.12;2.02;;;;;;;11.53;73.13;98534.33;1788547;80;21174;-39
2021/05/08 06:32:06;;;;;;;2.27;2.05;;;;;;;11.59;73.31;98555.29;1769392;80;21166;-40
2021/05/08 06:34:34;;;;;;;2.98;2.10;;;;;;;11.57;73.71;98550.81;1773686;79;21562;-39
2021/05/08 06:37:02;;;;;;;3.95;2.37;;;;;;;11.58;73.88;98559.73;1753785;79;21173;-39
2021/05/08 06:39:31;;;;;;;2.45;2.00;;;;;;;11.55;74.30;98564.02;1771310;79;21219;-39
2021/05/08 06:42:01;;;;;;;2.77;1.75;;;;;;;11.49;74.02;98562.83;1769935;81;21146;-39
2021/05/08 06:44:29;;;;;;;2.70;2.20;;;;;;;11.44;74.49;98568.63;1777886;80;21173;-39
2021/05/08 06:46:57;;;;;;;3.50;2.00;;;;;;;11.44;74.50;98578.70;1784296;80;22164;-39
2021/05/08 06:49:25;;;;;;;3.05;2.40;;;;;;;11.40;74.80;98573.28;1767254;80;21633;-39
2021/05/08 06:51:53;;;;;;;3.17;2.72;;;;;;;11.38;75.21;98581.59;1782878;79;21122;-39
2021/05/08 06:54:21;;;;;;;4.78;3.30;;;;;;;11.37;74.97;98578.13;1777505;78;21142;-39
2021/05/08 06:56:49;;;;;;;4.10;3.42;;;;;;;11.36;74.77;98584.70;1790082;78;21155;-39
2021/05/08 06:59:17;;;;;;;3.98;3.58;;;;;;;11.33;73.94;98596.30;1778586;79;21205;-39
2021/05/08 07:01:45;;;;;;;4.62;4.08;;;;;;;11.21;73.36;98596.66;1760635;80;21170;-39
2021/05/08 07:04:14;;;;;;;4.12;3.42;;;;;;;11.11;73.99;98621.23;1778975;79;21138;-39
2021/05/08 07:06:43;;;;;;;3.20;2.90;;;;;;;11.03;71.99;98629.15;1780944;80;21175;-39
2021/05/08 07:09:11;;;;;;;3.52;3.20;;;;;;;10.93;70.50;98632.58;1770379;80;21216;-39
2021/05/08 07:11:43;;;;;;;5.78;3.33;;;;;;;10.78;70.01;98657.47;1784443;79;21073;-39
2021/05/08 07:14:11;;;;;;;3.60;3.30;;;;;;;10.51;69.63;98668.29;1787477;79;21027;-39
2021/05/08 07:16:41;;;;;;;3.10;2.70;;;;;;;10.24;69.96;98662.84;1802522;78;21168;-39
2021/05/08 07:19:10;;;;;;;3.42;2.50;;;;;;;10.03;70.53;98679.63;1769292;79;22130;-39
2021/05/08 07:21:38;;;;;;;3.40;2.92;;;;;;;9.87;70.35;98670.41;1774938;78;21160;-39
2021/05/08 07:24:09;;;;;;;2.98;2.67;;;;;;;9.79;70.86;98684.22;1765710;79;21375;-39
2021/05/08 07:26:37;;;;;;;3.03;2.20;;;;;;;9.68;70.79;98684.69;1781889;79;21143;-39
2021/05/08 07:29:05;;;;;;;2.87;2.52;;;;;;;9.61;71.31;98692.14;1779701;79;21110;-39
2021/05/08 07:31:32;;;;;;;2.85;2.52;;;;;;;9.57;71.16;98696.17;1780876;80;21183;-39
2021/05/08 07:34:03;;;;;;;2.60;2.40;;;;;;;9.58;71.50;98699.66;1756773;80;21122;-39
2021/05/08 07:36:31;;;;;;;2.92;2.42;;;;;;;9.55;71.53;98694.39;1792377;78;21384;-39
2021/05/08 07:38:59;;;;;;;3.45;2.17;;;;;;;9.51;71.41;98700.91;1788151;78;21445;-39
2021/05/08 07:41:27;;;;;;;3.45;2.52;;;;;;;9.47;72.31;98706.85;1750986;80;21192;-39
2021/05/08 07:43:55;;;;;;;3.08;2.75;;;;;;;9.49;72.20;98714.80;1771482;80;21670;-39
2021/05/08 07:46:23;;;;;;;3.58;2.83;;;;;;;9.49;72.71;98722.13;1770667;80;21642;-39
2021/05/08 07:48:51;;;;;;;3.30;2.80;;;;;;;9.45;72.69;98722.66;1779633;79;21447;-39
2021/05/08 07:51:19;;;;;;;3.50;3.05;;;;;;;9.45;72.69;98734.27;1778725;79;21029;-39
2021/05/08 07:53:48;;;;;;;2.83;2.50;;;;;;;9.46;72.53;98730.98;1793127;79;21036;-39
2021/05/08 07:56:16;;;;;;;2.83;2.40;;;;;;;9.42;71.93;98739.06;1787815;78;21151;-39
2021/05/08 07:58:44;;;;;;;2.45;2.25;;;;;;;9.36;72.13;98743.23;1780275;79;21168;-39
2021/05/08 08:01:12;;;;;;;2.00;1.80;;;;;;;9.34;72.62;98737.42;1797264;78;21278;-39
2021/05/08 08:03:40;;;;;;;2.55;2.25;;;;;;;9.40;72.47;98734.59;1792427;78;21083;-41
2021/05/08 08:06:08;;;;;;;2.52;2.20;;;;;;;9.41;72.94;98742.13;1765676;80;21279;-39
2021/05/08 08:08:36;;;;;;;3.30;2.30;;;;;;;9.41;73.07;98744.27;1741858;80;21558;-39
2021/05/08 08:11:06;;;;;;;2.45;2.20;;;;;;;9.09;73.37;98691.67;1767087;80;21136;-39
2021/05/08 08:13:36;;;;;;;2.33;1.90;;;;;;;9.46;73.18;98749.93;1771171;79;21029;-39
2021/05/08 08:16:05;;;;;;;1.92;1.72;;;;;;;9.44;72.39;98754.34;1789697;79;21133;-39
2021/05/08 08:18:33;;;;;;;1.92;1.50;;;;;;;9.41;72.21;98766.48;1779754;78;21021;-39
2021/05/08 08:21:01;;;;;;;1.55;1.42;;;;;;;9.33;71.89;98764.83;1751707;81;21151;-39
2021/05/08 08:23:29;;;;;;;3.00;1.50;;;;;;;9.28;71.75;98765.14;1759146;79;21413;-39
2021/05/08 08:25:57;;;;;;;4.22;1.40;;;;;;;9.29;71.10;98770.20;1777055;79;21389;-39
2021/05/08 08:28:25;;;;;;;1.82;1.40;;;;;;;9.27;71.48;98763.58;1753053;80;21203;-39
2021/05/08 08:30:54;;;;;;;2.20;1.30;;;;;;;9.18;71.34;98763.06;1735660;80;21188;-39
2021/05/08 08:33:22;;;;;;;2.27;1.40;;;;;;;9.12;72.19;98762.59;1754052;80;21612;-39
2021/05/08 08:35:50;;;;;;;1.60;1.50;;;;;;;9.20;72.34;98765.59;1785128;79;21122;-39
2021/05/08 08:38:18;;;;;;;2.75;1.60;;;;;;;9.23;72.80;98764.10;1816491;78;21421;-39
2021/05/08 08:40:47;;;;;;;1.55;1.40;;;;;;;9.24;72.82;98767.02;1787141;78;21567;-39
2021/05/08 08:43:15;;;;;;;1.50;1.40;;;;;;;9.31;72.96;98769.81;1796790;79;21464;-39
2021/05/08 08:45:44;;;;;;;2.22;1.98;;;;;;;9.45;72.84;98770.79;1785883;78;21036;-39
2021/05/08 08:48:15;;;;;;;1.45;1.35;;;;;;;9.59;71.53;98773.69;1750198;81;21188;-40
2021/05/08 08:50:44;;;;;;;2.42;1.50;;;;;;;9.69;70.57;98773.62;1750531;81;23522;-39
2021/05/08 08:53:14;;;;;;;1.57;1.42;;;;;;;9.79;71.17;98781.09;1760400;80;21664;-39
2021/05/08 08:55:48;;;;;;;1.72;1.35;;;;;;;9.90;71.59;98777.17;1763872;80;21174;-39
2021/05/08 08:58:16;;;;;;;1.52;1.42;;;;;;;10.09;70.81;98778.94;1766269;80;21175;-39
2021/05/08 09:00:44;;;;;;;1.72;1.60;;;;;;;10.23;71.28;98784.53;1752522;80;21143;-39
2021/05/08 09:03:12;;;;;;;2.98;1.40;;;;;;;10.33;71.36;98785.23;1748962;80;22123;-39
2021/05/08 09:05:40;;;;;;;2.70;1.30;;;;;;;10.37;69.67;98787.39;1768708;79;21102;-39
2021/05/08 09:08:12;;;;;;;1.62;1.52;;;;;;;10.40;70.48;98798.86;1746784;79;20981;-39
2021/05/08 09:10:38;;;;;;;2.00;1.40;;;;;;;10.42;70.56;98799.25;1747731;80;21120;-39
2021/05/08 09:13:06;;;;;;;1.75;1.55;;;;;;;10.41;70.12;98799.83;1796477;79;21140;-39
2021/05/08 09:15:40;;;;;;;2.02;1.30;;;;;;;10.33;69.53;98797.42;1740645;79;21489;-39
2021/05/08 09:18:31;;;;;;;1.22;1.12;;;;;;;10.26;68.38;98800.06;1780364;79;21175;-39
2021/05/08 09:20:59;;;;;;;1.57;1.30;;;;;;;10.17;67.57;98803.05;1783564;80;21150;-39
2021/05/08 09:23:39;;;;;;;1.92;1.60;;;;;;;9.95;67.95;98801.22;1788950;80;21162;-39
2021/05/08 09:26:11;;;;;;;1.70;1.40;;;;;;;9.78;69.63;98798.48;1776231;79;21156;-39
2021/05/08 09:28:53;;;;;;;1.67;1.40;;;;;;;9.72;69.95;98801.32;1785074;80;21366;-39
2021/05/08 09:31:20;;;;;;;5.12;1.50;;;;;;;9.84;70.91;98801.08;1777724;80;21146;-39
2021/05/08 09:33:52;;;;;;;2.00;1.30;;;;;;;10.10;71.32;98805.66;1789787;80;21152;-39
2021/05/08 09:36:20;;;;;;;1.55;1.40;;;;;;;10.36;71.11;98803.47;1796863;79;21557;-39
2021/05/08 09:38:48;;;;;;;3.62;1.65;;;;;;;10.61;70.72;98802.34;1779857;80;21165;-39
2021/05/08 09:41:19;;;;;;;1.70;1.60;;;;;;;10.86;69.09;98802.00;1788980;79;21361;-39
2021/05/08 09:43:48;;;;;;;2.62;1.40;;;;;;;11.17;68.86;98803.42;1795730;78;22030;-40
2021/05/08 09:46:27;;;;;;;1.55;1.30;;;;;;;11.41;68.13;98794.67;1769738;79;21170;-39
2021/05/08 09:49:15;;;;;;;1.30;1.20;;;;;;;11.54;65.27;98798.63;1763287;79;21764;-39
2021/05/08 09:51:43;;;;;;;1.20;1.10;;;;;;;11.61;65.50;98804.69;1779991;78;21116;-39
2021/05/08 09:54:15;;;;;;;1.50;1.27;;;;;;;11.71;64.90;98796.57;1796661;79;21434;-39
2021/05/08 09:56:46;;;;;;;3.90;1.62;;;;;;;11.83;65.00;98796.86;1777452;79;21168;-39
2021/05/08 09:59:36;;;;;;;2.27;1.40;;;;;;;11.92;64.98;98810.09;1779669;79;21179;-39
2021/05/08 10:02:12;;;;;;;1.82;1.30;;;;;;;11.89;64.36;98815.72;1790953;80;21195;-39
2021/05/08 10:04:49;;;;;;;1.77;1.67;;;;;;;11.76;64.43;98825.36;1770573;79;21168;-39
2021/05/08 10:07:21;;;;;;;2.08;1.32;;;;;;;11.59;64.60;98836.27;1782679;79;21215;-39
2021/05/08 10:09:57;;;;;;;2.12;1.32;;;;;;;11.32;64.49;98845.22;1762761;80;21607;-39
2021/05/08 10:12:28;;;;;;;1.80;1.37;;;;;;;10.99;65.49;98852.69;1758001;80;21471;-39
2021/05/08 10:14:58;;;;;;;1.85;1.10;;;;;;;10.64;67.13;98859.89;1785189;79;21272;-39
2021/05/08 10:17:29;;;;;;;4.62;1.25;;;;;;;10.31;67.77;98871.53;1777253;80;21149;-39
2021/05/08 10:20:08;;;;;;;1.20;0.90;;;;;;;10.03;68.80;98876.75;1769316;79;21201;-39
2021/05/08 10:22:57;;;;;;;1.85;1.00;;;;;;;9.80;69.30;98884.75;1810570;78;21170;-40
2021/05/08 10:25:27;;;;;;;2.70;1.10;;;;;;;9.59;70.38;98879.23;1773605;79;21159;-39
2021/05/08 10:27:55;;;;;;;1.67;1.00;;;;;;;9.10;71.12;98841.36;1779839;79;21556;-39
2021/05/08 10:30:42;;;;;;;1.70;1.10;;;;;;;9.24;72.12;98892.79;1785909;79;21134;-39
2021/05/08 10:33:15;;;;;;;2.60;1.30;;;;;;;9.08;72.27;98879.38;1786321;79;21326;-39
2021/05/08 10:35:52;;;;;;;2.22;1.52;;;;;;;8.99;72.65;98894.50;1805541;78;21190;-39
2021/05/08 10:38:27;;;;;;;2.37;1.35;;;;;;;8.99;73.49;98901.83;1785749;80;21765;-39
2021/05/08 10:41:03;;;;;;;1.85;1.10;;;;;;;8.97;73.99;98907.58;1753001;80;21198;-39
2021/05/08 10:43:49;;;;;;;2.33;1.20;;;;;;;9.04;74.06;98912.34;1752619;81;21118;-39
2021/05/08 10:46:20;;;;;;;1.90;1.50;;;;;;;9.15;73.04;98917.34;1756007;81;21027;-39
2021/05/08 10:49:13;;;;;;;4.20;1.77;;;;;;;9.21;73.30;98916.48;1778313;80;26763;-39
2021/05/08 10:51:59;;;;;;;2.25;1.50;;;;;;;9.33;73.18;98910.91;1786150;78;21129;-39
2021/05/08 10:54:46;;;;;;;1.98;1.25;;;;;;;9.62;72.17;98917.55;1808176;78;21142;-39
2021/05/08 10:57:24;;;;;;;2.25;1.25;;;;;;;9.96;71.22;98911.87;1802988;78;21089;-39
2021/05/08 11:00:08;;;;;;;2.37;1.57;;;;;;;10.28;69.89;98928.58;1809752;78;21358;-39
2021/05/08 11:02:48;;;;;;;1.60;1.32;;;;;;;10.55;67.81;98925.25;1779169;79;21198;-39
2021/05/08 11:05:28;;;;;;;2.15;1.00;;;;;;;10.68;66.17;98925.77;1744716;81;21151;-39
2021/05/08 11:07:58;;;;;;;3.00;1.95;;;;;;;10.68;66.06;98948.81;1770975;80;21190;-39
2021/05/08 11:10:37;;;;;;;4.17;1.82;;;;;;;10.61;65.52;98955.49;1770365;79;21161;-39
2021/05/08 11:13:15;;;;;;;1.72;1.00;;;;;;;10.42;64.27;98953.14;1730076;82;21381;-39
2021/05/08 11:15:56;;;;;;;2.55;1.55;;;;;;;10.20;65.77;98960.02;1753519;80;21030;-39
2021/05/08 11:18:43;;;;;;;1.10;1.00;;;;;;;10.01;66.20;98971.14;1765841;81;21616;-39
2021/05/08 11:21:19;;;;;;;1.73;1.40;;;;;;;9.82;67.16;98983.99;1758546;80;21202;-40
2021/05/08 11:24:08;;;;;;;2.75;1.30;;;;;;;9.63;67.82;98986.78;1768701;80;21179;-39
2021/05/08 11:26:43;;;;;;;3.00;1.50;;;;;;;9.48;67.22;98991.17;1761326;81;22401;-39
2021/05/08 11:29:24;;;;;;;2.25;0.90;;;;;;;9.30;67.60;98997.60;1771224;80;21624;-39
2021/05/08 11:31:54;;;;;;;2.22;1.30;;;;;;;9.30;68.69;98996.25;1733270;80;21669;-39
2021/05/08 11:34:28;;;;;;;2.33;1.22;;;;;;;9.41;65.89;99001.85;1768455;81;21597;-39
2021/05/08 11:37:08;;;;;;;3.87;1.20;;;;;;;9.54;65.49;99004.59;1756730;81;21122;-39
2021/05/08 11:39:47;;;;;;;6.12;1.57;;;;;;;9.71;63.45;99012.23;1751983;81;21192;-40
2021/05/08 11:42:17;;;;;;;7.90;1.98;;;;;;;10.04;64.60;99007.53;1763956;80;22132;-39
2021/05/08 11:44:56;;;;;;;2.65;1.60;;;;;;;10.49;60.69;99017.52;1744032;81;21163;-39
2021/05/08 11:50:03;;;;;;;3.60;1.50;;;;;;;11.03;58.08;99030.59;1777267;79;21153;-39
2021/05/08 11:52:42;;;;;;;3.90;1.50;;;;;;;11.05;56.62;99037.77;1759671;81;21360;-39
2021/05/08 11:55:22;;;;;;;4.13;1.33;;;;;;;10.98;57.22;99036.34;1785470;78;21128;-39